sensor_id;sensor_type;location;lat;lon;timestamp;pressure;altitude;pressure_sealevel;temperature;humidity
32733;BME280;11867;51.198;11.966;2023-03-20T00:00:52;100529.47;;;10.90;94.58
32733;BME280;11867;51.198;11.966;2023-03-20T00:01:55;100533.94;;;10.40;97.10
32733;BME280;11867;51.198;11.966;2023-03-20T00:02:58;100536.34;;;10.67;96.87
32733;BME280;11867;51.198;11.966;2023-03-20T00:04:01;100530.88;;;10.77;96.11
32733;BME280;11867;51.198;11.966;2023-03-20T00:05:14;100533.34;;;10.63;95.61
32733;BME280;11867;51.198;11.966;2023-03-20T00:06:21;100538.22;;;10.77;95.61
32733;BME280;11867;51.198;11.966;2023-03-20T00:07:24;100528.06;;;10.98;94.80
32733;BME280;11867;51.198;11.966;2023-03-20T00:08:26;100532.16;;;11.00;94.11
32733;BME280;11867;51.198;11.966;2023-03-20T00:09:30;100537.03;;;11.03;94.34
32733;BME280;11867;51.198;11.966;2023-03-20T00:10:34;100522.97;;;11.36;92.84
32733;BME280;11867;51.198;11.966;2023-03-20T00:11:42;100528.59;;;11.55;91.74
32733;BME280;11867;51.198;11.966;2023-03-20T00:12:49;100530.13;;;11.71;90.32
32733;BME280;11867;51.198;11.966;2023-03-20T00:13:53;100522.34;;;11.49;90.95
32733;BME280;11867;51.198;11.966;2023-03-20T00:14:56;100528.34;;;11.51;91.18
32733;BME280;11867;51.198;11.966;2023-03-20T00:16:00;100521.38;;;11.29;91.43
32733;BME280;11867;51.198;11.966;2023-03-20T00:17:08;100522.91;;;10.91;93.38
32733;BME280;11867;51.198;11.966;2023-03-20T00:18:15;100526.72;;;10.90;94.37
32733;BME280;11867;51.198;11.966;2023-03-20T00:19:20;100531.16;;;10.76;94.91
32733;BME280;11867;51.198;11.966;2023-03-20T00:20:24;100520.16;;;10.91;95.02
32733;BME280;11867;51.198;11.966;2023-03-20T00:21:25;100528.16;;;10.72;95.21
32733;BME280;11867;51.198;11.966;2023-03-20T00:22:28;100524.06;;;10.64;95.95
32733;BME280;11867;51.198;11.966;2023-03-20T00:23:33;100519.16;;;10.72;96.01
32733;BME280;11867;51.198;11.966;2023-03-20T00:24:35;100521.34;;;10.54;96.92
32733;BME280;11867;51.198;11.966;2023-03-20T00:25:37;100520.31;;;10.35;97.85
32733;BME280;11867;51.198;11.966;2023-03-20T00:26:42;100522.47;;;10.22;98.67
32733;BME280;11867;51.198;11.966;2023-03-20T00:27:44;100516.22;;;10.22;99.09
32733;BME280;11867;51.198;11.966;2023-03-20T00:28:47;100522.72;;;10.62;98.38
32733;BME280;11867;51.198;11.966;2023-03-20T00:29:52;100517.97;;;10.98;96.29
32733;BME280;11867;51.198;11.966;2023-03-20T00:30:54;100518.78;;;10.99;94.74
32733;BME280;11867;51.198;11.966;2023-03-20T00:31:57;100523.66;;;11.12;94.41
32733;BME280;11867;51.198;11.966;2023-03-20T00:33:00;100514.75;;;11.41;93.30
32733;BME280;11867;51.198;11.966;2023-03-20T00:34:03;100520.34;;;11.65;91.69
32733;BME280;11867;51.198;11.966;2023-03-20T00:35:15;100519.09;;;11.86;90.62
32733;BME280;11867;51.198;11.966;2023-03-20T00:36:19;100524.47;;;12.02;89.49
32733;BME280;11867;51.198;11.966;2023-03-20T00:37:21;100519.75;;;12.13;88.75
32733;BME280;11867;51.198;11.966;2023-03-20T00:38:23;100522.38;;;12.23;88.05
32733;BME280;11867;51.198;11.966;2023-03-20T00:39:26;100531.88;;;12.30;87.65
32733;BME280;11867;51.198;11.966;2023-03-20T00:40:29;100528.34;;;12.30;87.13
32733;BME280;11867;51.198;11.966;2023-03-20T00:41:38;100529.25;;;12.20;86.84
32733;BME280;11867;51.198;11.966;2023-03-20T00:42:43;100523.94;;;11.60;90.11
32733;BME280;11867;51.198;11.966;2023-03-20T00:43:49;100518.00;;;11.43;91.42
32733;BME280;11867;51.198;11.966;2023-03-20T00:44:54;100527.03;;;11.43;91.96
32733;BME280;11867;51.198;11.966;2023-03-20T00:45:59;100521.09;;;11.76;91.01
32733;BME280;11867;51.198;11.966;2023-03-20T00:47:03;100523.75;;;11.91;89.47
32733;BME280;11867;51.198;11.966;2023-03-20T00:48:09;100515.13;;;11.68;90.11
32733;BME280;11867;51.198;11.966;2023-03-20T00:49:12;100525.66;;;11.85;90.16
32733;BME280;11867;51.198;11.966;2023-03-20T00:50:18;100523.97;;;11.95;89.37
32733;BME280;11867;51.198;11.966;2023-03-20T00:51:21;100524.47;;;12.02;89.06
32733;BME280;11867;51.198;11.966;2023-03-20T00:52:24;100517.59;;;11.70;90.41
32733;BME280;11867;51.198;11.966;2023-03-20T00:53:25;100519.50;;;11.25;91.97
32733;BME280;11867;51.198;11.966;2023-03-20T00:54:28;100520.53;;;11.34;92.74
32733;BME280;11867;51.198;11.966;2023-03-20T00:55:29;100518.81;;;11.48;92.20
32733;BME280;11867;51.198;11.966;2023-03-20T00:56:34;100515.34;;;11.77;91.02
32733;BME280;11867;51.198;11.966;2023-03-20T00:57:40;100518.56;;;11.89;90.12
32733;BME280;11867;51.198;11.966;2023-03-20T00:58:44;100519.34;;;11.95;89.34
32733;BME280;11867;51.198;11.966;2023-03-20T00:59:51;100514.69;;;11.96;89.19
32733;BME280;11867;51.198;11.966;2023-03-20T01:00:58;100511.69;;;11.97;89.08
32733;BME280;11867;51.198;11.966;2023-03-20T01:02:00;100518.69;;;11.69;90.22
32733;BME280;11867;51.198;11.966;2023-03-20T01:03:12;100513.81;;;11.61;90.88
32733;BME280;11867;51.198;11.966;2023-03-20T01:04:17;100517.06;;;11.68;90.69
32733;BME280;11867;51.198;11.966;2023-03-20T01:05:21;100514.88;;;11.65;90.89
32733;BME280;11867;51.198;11.966;2023-03-20T01:06:22;100518.56;;;11.45;91.88
32733;BME280;11867;51.198;11.966;2023-03-20T01:07:25;100521.16;;;11.21;93.52
32733;BME280;11867;51.198;11.966;2023-03-20T01:08:28;100520.94;;;11.07;94.54
32733;BME280;11867;51.198;11.966;2023-03-20T01:09:31;100519.19;;;11.26;94.17
32733;BME280;11867;51.198;11.966;2023-03-20T01:10:33;100529.78;;;11.43;93.32
32733;BME280;11867;51.198;11.966;2023-03-20T01:11:36;100525.97;;;11.34;93.29
32733;BME280;11867;51.198;11.966;2023-03-20T01:12:39;100526.19;;;11.48;92.93
32733;BME280;11867;51.198;11.966;2023-03-20T01:13:42;100532.78;;;11.42;93.24
32733;BME280;11867;51.198;11.966;2023-03-20T01:14:44;100520.84;;;11.27;93.30
32733;BME280;11867;51.198;11.966;2023-03-20T01:15:51;100530.06;;;11.37;93.62
32733;BME280;11867;51.198;11.966;2023-03-20T01:16:54;100522.06;;;11.56;92.69
32733;BME280;11867;51.198;11.966;2023-03-20T01:17:57;100528.88;;;11.53;92.36
32733;BME280;11867;51.198;11.966;2023-03-20T01:18:59;100515.66;;;11.31;93.39
32733;BME280;11867;51.198;11.966;2023-03-20T01:20:01;100533.50;;;11.03;95.36
32733;BME280;11867;51.198;11.966;2023-03-20T01:21:03;100526.09;;;11.14;95.73
32733;BME280;11867;51.198;11.966;2023-03-20T01:22:06;100524.97;;;11.20;94.95
32733;BME280;11867;51.198;11.966;2023-03-20T01:23:09;100519.97;;;11.37;94.54
32733;BME280;11867;51.198;11.966;2023-03-20T01:24:12;100518.66;;;11.24;94.85
32733;BME280;11867;51.198;11.966;2023-03-20T01:25:14;100526.78;;;11.35;94.43
32733;BME280;11867;51.198;11.966;2023-03-20T01:26:23;100527.06;;;11.38;94.28
32733;BME280;11867;51.198;11.966;2023-03-20T01:27:27;100518.59;;;11.35;94.40
32733;BME280;11867;51.198;11.966;2023-03-20T01:28:30;100521.91;;;11.31;93.84
32733;BME280;11867;51.198;11.966;2023-03-20T01:29:32;100517.31;;;11.27;93.57
32733;BME280;11867;51.198;11.966;2023-03-20T01:30:35;100523.84;;;11.31;93.99
32733;BME280;11867;51.198;11.966;2023-03-20T01:31:36;100522.19;;;11.30;93.95
32733;BME280;11867;51.198;11.966;2023-03-20T01:32:40;100527.59;;;11.40;93.24
32733;BME280;11867;51.198;11.966;2023-03-20T01:33:44;100528.66;;;11.49;93.42
32733;BME280;11867;51.198;11.966;2023-03-20T01:34:47;100525.06;;;11.49;92.52
32733;BME280;11867;51.198;11.966;2023-03-20T01:35:49;100527.03;;;11.43;92.75
32733;BME280;11867;51.198;11.966;2023-03-20T01:36:54;100533.91;;;11.30;93.36
32733;BME280;11867;51.198;11.966;2023-03-20T01:37:56;100524.94;;;11.25;94.38
32733;BME280;11867;51.198;11.966;2023-03-20T01:38:59;100532.06;;;11.16;94.82
32733;BME280;11867;51.198;11.966;2023-03-20T01:40:00;100520.56;;;11.24;95.01
32733;BME280;11867;51.198;11.966;2023-03-20T01:41:05;100530.69;;;11.23;94.96
32733;BME280;11867;51.198;11.966;2023-03-20T01:42:11;100533.09;;;11.35;94.42
32733;BME280;11867;51.198;11.966;2023-03-20T01:43:18;100533.22;;;11.04;96.06
32733;BME280;11867;51.198;11.966;2023-03-20T01:44:22;100530.16;;;11.16;95.30
32733;BME280;11867;51.198;11.966;2023-03-20T01:45:30;100535.28;;;11.33;94.97
32733;BME280;11867;51.198;11.966;2023-03-20T01:46:33;100539.03;;;11.42;93.97
32733;BME280;11867;51.198;11.966;2023-03-20T01:47:40;100533.53;;;11.52;93.10
32733;BME280;11867;51.198;11.966;2023-03-20T01:48:58;100539.19;;;11.66;92.79
32733;BME280;11867;51.198;11.966;2023-03-20T01:50:29;100532.91;;;11.66;91.65
32733;BME280;11867;51.198;11.966;2023-03-20T01:51:31;100535.66;;;11.61;92.60
32733;BME280;11867;51.198;11.966;2023-03-20T01:52:36;100536.72;;;11.65;92.70
32733;BME280;11867;51.198;11.966;2023-03-20T01:53:37;100533.47;;;11.63;92.07
32733;BME280;11867;51.198;11.966;2023-03-20T01:54:40;100535.84;;;11.75;91.64
32733;BME280;11867;51.198;11.966;2023-03-20T01:55:45;100542.06;;;11.85;91.58
32733;BME280;11867;51.198;11.966;2023-03-20T01:56:53;100538.78;;;11.83;91.48
32733;BME280;11867;51.198;11.966;2023-03-20T01:57:59;100529.22;;;11.91;91.35
32733;BME280;11867;51.198;11.966;2023-03-20T01:59:09;100538.59;;;11.75;91.26
32733;BME280;11867;51.198;11.966;2023-03-20T02:00:14;100543.84;;;11.61;92.33
32733;BME280;11867;51.198;11.966;2023-03-20T02:01:18;100539.72;;;11.68;92.49
32733;BME280;11867;51.198;11.966;2023-03-20T02:02:22;100547.13;;;11.63;92.37
32733;BME280;11867;51.198;11.966;2023-03-20T02:03:27;100545.56;;;11.51;93.04
32733;BME280;11867;51.198;11.966;2023-03-20T02:04:33;100545.78;;;11.60;92.98
32733;BME280;11867;51.198;11.966;2023-03-20T02:05:37;100545.78;;;11.60;92.90
32733;BME280;11867;51.198;11.966;2023-03-20T02:06:40;100528.59;;;11.60;92.50
32733;BME280;11867;51.198;11.966;2023-03-20T02:07:44;100541.72;;;11.52;92.83
32733;BME280;11867;51.198;11.966;2023-03-20T02:08:49;100545.47;;;11.67;92.76
32733;BME280;11867;51.198;11.966;2023-03-20T02:09:51;100539.44;;;11.70;92.33
32733;BME280;11867;51.198;11.966;2023-03-20T02:10:56;100542.78;;;11.62;92.53
32733;BME280;11867;51.198;11.966;2023-03-20T02:11:59;100534.34;;;11.53;92.70
32733;BME280;11867;51.198;11.966;2023-03-20T02:13:02;100534.28;;;11.63;92.61
32733;BME280;11867;51.198;11.966;2023-03-20T02:14:05;100538.47;;;11.50;92.65
32733;BME280;11867;51.198;11.966;2023-03-20T02:15:08;100533.47;;;11.63;92.74
32733;BME280;11867;51.198;11.966;2023-03-20T02:16:13;100531.88;;;11.57;92.41
32733;BME280;11867;51.198;11.966;2023-03-20T02:17:16;100539.03;;;11.47;93.20
32733;BME280;11867;51.198;11.966;2023-03-20T02:18:18;100536.34;;;11.37;93.63
32733;BME280;11867;51.198;11.966;2023-03-20T02:19:26;100527.63;;;11.35;93.79
32733;BME280;11867;51.198;11.966;2023-03-20T02:20:43;100537.97;;;11.38;94.21
32733;BME280;11867;51.198;11.966;2023-03-20T02:22:17;100526.03;;;11.24;94.58
32733;BME280;11867;51.198;11.966;2023-03-20T02:23:47;100533.16;;;11.20;94.95
32733;BME280;11867;51.198;11.966;2023-03-20T02:25:17;100531.00;;;11.11;95.59
32733;BME280;11867;51.198;11.966;2023-03-20T02:26:43;100527.72;;;11.15;95.79
32733;BME280;11867;51.198;11.966;2023-03-20T02:28:01;100532.66;;;11.13;95.43
32733;BME280;11867;51.198;11.966;2023-03-20T02:30:50;100521.75;;;11.13;95.82
32733;BME280;11867;51.198;11.966;2023-03-20T02:32:23;100530.47;;;11.09;95.72
32733;BME280;11867;51.198;11.966;2023-03-20T02:33:57;100530.09;;;11.26;95.48
32733;BME280;11867;51.198;11.966;2023-03-20T02:35:42;100525.66;;;11.46;93.94
32733;BME280;11867;51.198;11.966;2023-03-20T02:38:33;100523.28;;;11.29;94.74
32733;BME280;11867;51.198;11.966;2023-03-20T02:39:49;100520.78;;;11.38;94.69
32733;BME280;11867;51.198;11.966;2023-03-20T02:41:00;100524.66;;;11.26;94.77
32733;BME280;11867;51.198;11.966;2023-03-20T02:42:10;100522.22;;;11.25;94.64
32733;BME280;11867;51.198;11.966;2023-03-20T02:43:22;100524.09;;;11.29;95.08
32733;BME280;11867;51.198;11.966;2023-03-20T02:44:32;100519.13;;;11.37;94.26
32733;BME280;11867;51.198;11.966;2023-03-20T02:45:45;100521.47;;;11.59;93.28
32733;BME280;11867;51.198;11.966;2023-03-20T02:46:53;100528.22;;;11.71;92.83
32733;BME280;11867;51.198;11.966;2023-03-20T02:48:08;100532.34;;;11.69;92.25
32733;BME280;11867;51.198;11.966;2023-03-20T02:49:18;100527.13;;;11.73;92.48
32733;BME280;11867;51.198;11.966;2023-03-20T02:50:31;100529.41;;;11.60;92.28
32733;BME280;11867;51.198;11.966;2023-03-20T02:51:36;100529.88;;;11.67;92.43
32733;BME280;11867;51.198;11.966;2023-03-20T02:52:47;100529.06;;;11.72;92.52
32733;BME280;11867;51.198;11.966;2023-03-20T02:53:59;100527.06;;;11.83;91.93
32733;BME280;11867;51.198;11.966;2023-03-20T02:55:13;100525.00;;;11.64;92.27
32733;BME280;11867;51.198;11.966;2023-03-20T02:56:17;100527.25;;;11.52;92.81
32733;BME280;11867;51.198;11.966;2023-03-20T02:57:32;100523.47;;;11.48;93.71
32733;BME280;11867;51.198;11.966;2023-03-20T02:58:43;100527.16;;;11.67;93.01
32733;BME280;11867;51.198;11.966;2023-03-20T02:59:54;100533.94;;;11.75;92.34
32733;BME280;11867;51.198;11.966;2023-03-20T03:01:01;100523.44;;;11.93;91.71
32733;BME280;11867;51.198;11.966;2023-03-20T03:02:07;100528.78;;;11.68;92.66
32733;BME280;11867;51.198;11.966;2023-03-20T03:03:12;100525.84;;;11.60;92.80
32733;BME280;11867;51.198;11.966;2023-03-20T03:04:18;100523.28;;;11.74;92.63
32733;BME280;11867;51.198;11.966;2023-03-20T03:05:25;100523.53;;;11.77;92.00
32733;BME280;11867;51.198;11.966;2023-03-20T03:06:33;100525.66;;;11.85;91.32
32733;BME280;11867;51.198;11.966;2023-03-20T03:07:37;100521.22;;;12.00;90.41
32733;BME280;11867;51.198;11.966;2023-03-20T03:08:46;100520.31;;;12.09;90.27
32733;BME280;11867;51.198;11.966;2023-03-20T03:09:54;100522.94;;;11.85;90.42
32733;BME280;11867;51.198;11.966;2023-03-20T03:11:02;100524.28;;;11.93;90.31
32733;BME280;11867;51.198;11.966;2023-03-20T03:12:10;100525.28;;;12.02;90.42
32733;BME280;11867;51.198;11.966;2023-03-20T03:13:19;100521.84;;;12.21;89.38
32733;BME280;11867;51.198;11.966;2023-03-20T03:14:29;100528.28;;;12.01;89.74
32733;BME280;11867;51.198;11.966;2023-03-20T03:15:37;100520.59;;;12.08;89.92
32733;BME280;11867;51.198;11.966;2023-03-20T03:16:40;100531.38;;;12.23;89.27
32733;BME280;11867;51.198;11.966;2023-03-20T03:17:47;100524.41;;;12.07;89.56
32733;BME280;11867;51.198;11.966;2023-03-20T03:18:56;100525.19;;;12.13;89.67
32733;BME280;11867;51.198;11.966;2023-03-20T03:20:04;100532.50;;;12.22;89.04
32733;BME280;11867;51.198;11.966;2023-03-20T03:21:09;100534.00;;;12.39;88.32
32733;BME280;11867;51.198;11.966;2023-03-20T03:22:13;100532.53;;;12.17;88.72
32733;BME280;11867;51.198;11.966;2023-03-20T03:23:22;100529.75;;;11.88;90.21
32733;BME280;11867;51.198;11.966;2023-03-20T03:24:28;100529.34;;;12.05;90.06
32733;BME280;11867;51.198;11.966;2023-03-20T03:25:42;100530.75;;;12.02;89.70
32733;BME280;11867;51.198;11.966;2023-03-20T03:26:46;100529.59;;;11.74;91.07
32733;BME280;11867;51.198;11.966;2023-03-20T03:27:52;100526.63;;;11.65;91.12
32733;BME280;11867;51.198;11.966;2023-03-20T03:28:57;100521.22;;;11.55;92.12
32733;BME280;11867;51.198;11.966;2023-03-20T03:30:05;100533.06;;;11.80;91.26
32733;BME280;11867;51.198;11.966;2023-03-20T03:31:11;100527.78;;;11.54;92.08
32733;BME280;11867;51.198;11.966;2023-03-20T03:32:24;100525.66;;;10.86;95.57
32733;BME280;11867;51.198;11.966;2023-03-20T03:33:29;100532.41;;;11.04;96.00
32733;BME280;11867;51.198;11.966;2023-03-20T03:34:33;100533.91;;;11.30;94.87
32733;BME280;11867;51.198;11.966;2023-03-20T03:35:39;100535.38;;;11.62;93.36
32733;BME280;11867;51.198;11.966;2023-03-20T03:36:45;100533.22;;;11.59;92.09
32733;BME280;11867;51.198;11.966;2023-03-20T03:37:57;100536.25;;;11.58;92.96
32733;BME280;11867;51.198;11.966;2023-03-20T03:39:06;100536.53;;;11.56;92.50
32733;BME280;11867;51.198;11.966;2023-03-20T03:40:18;100537.22;;;11.27;94.18
32733;BME280;11867;51.198;11.966;2023-03-20T03:41:26;100531.63;;;10.98;96.02
32733;BME280;11867;51.198;11.966;2023-03-20T03:42:33;100538.19;;;10.92;96.87
32733;BME280;11867;51.198;11.966;2023-03-20T03:43:40;100536.63;;;10.55;98.15
32733;BME280;11867;51.198;11.966;2023-03-20T03:44:49;100543.22;;;10.39;99.86
32733;BME280;11867;51.198;11.966;2023-03-20T03:45:57;100542.13;;;10.29;100.00
32733;BME280;11867;51.198;11.966;2023-03-20T03:47:04;100550.28;;;10.19;100.00
32733;BME280;11867;51.198;11.966;2023-03-20T03:48:12;100541.56;;;10.43;100.00
32733;BME280;11867;51.198;11.966;2023-03-20T03:49:19;100545.91;;;10.59;99.66
32733;BME280;11867;51.198;11.966;2023-03-20T03:50:25;100542.34;;;10.64;99.15
32733;BME280;11867;51.198;11.966;2023-03-20T03:51:32;100545.31;;;10.78;98.29
32733;BME280;11867;51.198;11.966;2023-03-20T03:52:37;100539.94;;;10.42;99.47
32733;BME280;11867;51.198;11.966;2023-03-20T03:53:43;100543.50;;;10.32;100.00
32733;BME280;11867;51.198;11.966;2023-03-20T03:54:50;100545.41;;;10.32;100.00
32733;BME280;11867;51.198;11.966;2023-03-20T03:55:56;100538.59;;;10.34;100.00
32733;BME280;11867;51.198;11.966;2023-03-20T03:57:02;100546.16;;;10.58;100.00
32733;BME280;11867;51.198;11.966;2023-03-20T03:58:09;100550.56;;;10.28;100.00
32733;BME280;11867;51.198;11.966;2023-03-20T03:59:19;100553.03;;;10.40;100.00
32733;BME280;11867;51.198;11.966;2023-03-20T04:00:25;100554.09;;;10.59;99.78
32733;BME280;11867;51.198;11.966;2023-03-20T04:01:27;100547.56;;;10.35;100.00
32733;BME280;11867;51.198;11.966;2023-03-20T04:02:35;100557.66;;;10.44;100.00
32733;BME280;11867;51.198;11.966;2023-03-20T04:03:39;100554.91;;;10.65;100.00
32733;BME280;11867;51.198;11.966;2023-03-20T04:04:44;100555.72;;;10.55;99.60
32733;BME280;11867;51.198;11.966;2023-03-20T04:05:49;100554.09;;;10.18;100.00
32733;BME280;11867;51.198;11.966;2023-03-20T04:06:52;100557.06;;;9.96;100.00
32733;BME280;11867;51.198;11.966;2023-03-20T04:07:57;100554.31;;;9.70;100.00
32733;BME280;11867;51.198;11.966;2023-03-20T04:08:59;100553.25;;;9.72;100.00
32733;BME280;11867;51.198;11.966;2023-03-20T04:10:02;100552.13;;;9.57;100.00
32733;BME280;11867;51.198;11.966;2023-03-20T04:11:04;100555.69;;;9.83;100.00
32733;BME280;11867;51.198;11.966;2023-03-20T04:12:25;100553.56;;;10.21;100.00
32733;BME280;11867;51.198;11.966;2023-03-20T04:13:31;100560.34;;;10.14;100.00
32733;BME280;11867;51.198;11.966;2023-03-20T04:14:33;100560.63;;;10.07;100.00
32733;BME280;11867;51.198;11.966;2023-03-20T04:15:35;100564.44;;;10.06;100.00
32733;BME280;11867;51.198;11.966;2023-03-20T04:16:38;100564.16;;;9.87;100.00
32733;BME280;11867;51.198;11.966;2023-03-20T04:17:40;100574.25;;;10.02;100.00
32733;BME280;11867;51.198;11.966;2023-03-20T04:18:43;100564.97;;;10.18;100.00
32733;BME280;11867;51.198;11.966;2023-03-20T04:19:45;100561.22;;;10.29;100.00
32733;BME280;11867;51.198;11.966;2023-03-20T04:20:48;100567.47;;;10.50;100.00
32733;BME280;11867;51.198;11.966;2023-03-20T04:21:49;100564.75;;;10.40;100.00
32733;BME280;11867;51.198;11.966;2023-03-20T04:22:52;100562.31;;;10.44;100.00
32733;BME280;11867;51.198;11.966;2023-03-20T04:23:53;100566.34;;;10.62;99.89
32733;BME280;11867;51.198;11.966;2023-03-20T04:24:56;100569.91;;;10.11;100.00
32733;BME280;11867;51.198;11.966;2023-03-20T04:25:59;100568.25;;;10.20;100.00
32733;BME280;11867;51.198;11.966;2023-03-20T04:27:02;100564.44;;;10.16;100.00
32733;BME280;11867;51.198;11.966;2023-03-20T04:28:06;100573.16;;;9.93;100.00
32733;BME280;11867;51.198;11.966;2023-03-20T04:29:08;100574.78;;;9.88;100.00
32733;BME280;11867;51.198;11.966;2023-03-20T04:30:12;100568.22;;;9.89;100.00
32733;BME280;11867;51.198;11.966;2023-03-20T04:31:14;100577.78;;;10.07;100.00
32733;BME280;11867;51.198;11.966;2023-03-20T04:32:17;100570.69;;;10.01;100.00
32733;BME280;11867;51.198;11.966;2023-03-20T04:33:19;100575.56;;;9.74;100.00
32733;BME280;11867;51.198;11.966;2023-03-20T04:34:22;100581.59;;;10.06;100.00
32733;BME280;11867;51.198;11.966;2023-03-20T04:35:25;100579.72;;;10.07;100.00
32733;BME280;11867;51.198;11.966;2023-03-20T04:36:27;100576.47;;;10.36;100.00
32733;BME280;11867;51.198;11.966;2023-03-20T04:37:30;100582.97;;;10.60;100.00
32733;BME280;11867;51.198;11.966;2023-03-20T04:38:32;100575.59;;;10.71;99.92
32733;BME280;11867;51.198;11.966;2023-03-20T04:39:34;100583.78;;;10.81;99.13
32733;BME280;11867;51.198;11.966;2023-03-20T04:40:37;100582.16;;;10.65;98.67
32733;BME280;11867;51.198;11.966;2023-03-20T04:41:39;100576.69;;;10.75;98.90
32733;BME280;11867;51.198;11.966;2023-03-20T04:42:41;100579.06;;;10.97;97.59
32733;BME280;11867;51.198;11.966;2023-03-20T04:43:45;100585.94;;;10.89;97.10
32733;BME280;11867;51.198;11.966;2023-03-20T04:44:47;100590.03;;;10.77;97.62
32733;BME280;11867;51.198;11.966;2023-03-20T04:45:49;100585.13;;;10.79;97.30
32733;BME280;11867;51.198;11.966;2023-03-20T04:46:51;100584.25;;;10.99;96.52
32733;BME280;11867;51.198;11.966;2023-03-20T04:47:53;100586.66;;;11.21;95.66
32733;BME280;11867;51.198;11.966;2023-03-20T04:48:55;100587.41;;;11.31;94.64
32733;BME280;11867;51.198;11.966;2023-03-20T04:49:58;100584.59;;;11.47;93.56
32733;BME280;11867;51.198;11.966;2023-03-20T04:50:59;100579.88;;;11.68;92.54
32733;BME280;11867;51.198;11.966;2023-03-20T04:52:09;100589.03;;;11.38;92.67
32733;BME280;11867;51.198;11.966;2023-03-20T04:53:10;100589.31;;;11.41;93.28
32733;BME280;11867;51.198;11.966;2023-03-20T04:54:13;100587.59;;;11.56;93.05
32733;BME280;11867;51.198;11.966;2023-03-20T04:55:15;100581.81;;;11.57;92.04
32733;BME280;11867;51.198;11.966;2023-03-20T04:56:17;100578.81;;;11.64;91.52
32733;BME280;11867;51.198;11.966;2023-03-20T04:57:19;100582.25;;;11.80;90.97
32733;BME280;11867;51.198;11.966;2023-03-20T04:58:21;100582.03;;;11.71;90.71
32733;BME280;11867;51.198;11.966;2023-03-20T04:59:25;100585.34;;;11.68;90.38
32733;BME280;11867;51.198;11.966;2023-03-20T05:00:27;100582.13;;;11.56;91.23
32733;BME280;11867;51.198;11.966;2023-03-20T05:01:29;100592.47;;;11.59;91.93
32733;BME280;11867;51.198;11.966;2023-03-20T05:02:32;100590.00;;;11.62;91.73
32733;BME280;11867;51.198;11.966;2023-03-20T05:03:33;100588.56;;;11.75;91.09
32733;BME280;11867;51.198;11.966;2023-03-20T05:04:36;100584.88;;;11.56;91.64
32733;BME280;11867;51.198;11.966;2023-03-20T05:05:38;100593.06;;;11.50;91.02
32733;BME280;11867;51.198;11.966;2023-03-20T05:06:41;100599.88;;;11.53;91.29
32733;BME280;11867;51.198;11.966;2023-03-20T05:07:44;100589.69;;;11.69;90.77
32733;BME280;11867;51.198;11.966;2023-03-20T05:08:47;100589.25;;;11.46;91.47
32733;BME280;11867;51.198;11.966;2023-03-20T05:09:48;100593.56;;;11.63;91.57
32733;BME280;11867;51.198;11.966;2023-03-20T05:10:51;100593.81;;;11.61;91.13
32733;BME280;11867;51.198;11.966;2023-03-20T05:11:53;100592.41;;;11.69;90.49
32733;BME280;11867;51.198;11.966;2023-03-20T05:12:55;100588.59;;;11.70;90.52
32733;BME280;11867;51.198;11.966;2023-03-20T05:13:57;100595.06;;;11.84;90.53
32733;BME280;11867;51.198;11.966;2023-03-20T05:15:01;100596.31;;;11.58;90.80
32733;BME280;11867;51.198;11.966;2023-03-20T05:16:03;100601.78;;;11.52;91.90
32733;BME280;11867;51.198;11.966;2023-03-20T05:17:05;100596.91;;;11.44;92.39
32733;BME280;11867;51.198;11.966;2023-03-20T05:18:07;100599.78;;;11.08;93.78
32733;BME280;11867;51.198;11.966;2023-03-20T05:19:10;100605.81;;;11.00;94.38
32733;BME280;11867;51.198;11.966;2023-03-20T05:20:12;100604.75;;;10.81;95.75
32733;BME280;11867;51.198;11.966;2023-03-20T05:21:14;100606.47;;;10.46;97.93
32733;BME280;11867;51.198;11.966;2023-03-20T05:22:16;100603.66;;;10.77;97.95
32733;BME280;11867;51.198;11.966;2023-03-20T05:23:19;100601.78;;;10.62;98.02
32733;BME280;11867;51.198;11.966;2023-03-20T05:24:20;100602.59;;;10.52;97.86
32733;BME280;11867;51.198;11.966;2023-03-20T05:25:23;100603.44;;;10.53;99.24
32733;BME280;11867;51.198;11.966;2023-03-20T05:26:26;100596.63;;;10.65;98.07
32733;BME280;11867;51.198;11.966;2023-03-20T05:27:29;100605.88;;;10.28;99.70
32733;BME280;11867;51.198;11.966;2023-03-20T05:28:30;100601.78;;;10.16;100.00
32733;BME280;11867;51.198;11.966;2023-03-20T05:29:33;100601.22;;;10.14;100.00
32733;BME280;11867;51.198;11.966;2023-03-20T05:30:36;100600.13;;;10.25;100.00
32733;BME280;11867;51.198;11.966;2023-03-20T05:31:39;100603.41;;;10.22;100.00
32733;BME280;11867;51.198;11.966;2023-03-20T05:32:40;100603.44;;;10.32;100.00
32733;BME280;11867;51.198;11.966;2023-03-20T05:33:44;100607.50;;;10.19;100.00
32733;BME280;11867;51.198;11.966;2023-03-20T05:34:46;100610.75;;;10.06;100.00
32733;BME280;11867;51.198;11.966;2023-03-20T05:35:48;100601.78;;;10.16;100.00
32733;BME280;11867;51.198;11.966;2023-03-20T05:36:50;100603.16;;;10.39;100.00
32733;BME280;11867;51.198;11.966;2023-03-20T05:37:52;100607.53;;;10.45;100.00
32733;BME280;11867;51.198;11.966;2023-03-20T05:38:54;100605.31;;;10.16;100.00
32733;BME280;11867;51.198;11.966;2023-03-20T05:39:57;100609.66;;;10.22;100.00
32733;BME280;11867;51.198;11.966;2023-03-20T05:40:59;100609.66;;;10.12;100.00